createdAt,value
2023-03-13T00:00:59.987Z,100484.41
2023-03-13T00:03:28.746Z,100481.13
2023-03-13T00:05:57.921Z,100479.53
2023-03-13T00:08:30.028Z,100473.50
2023-03-13T00:10:58.053Z,100474.16
2023-03-13T00:13:26.033Z,100465.44
2023-03-13T00:16:01.397Z,100459.38
2023-03-13T00:18:29.332Z,100459.00
2023-03-13T00:21:00.872Z,100452.53
2023-03-13T00:23:30.312Z,100449.03
2023-03-13T00:25:59.373Z,100442.47
2023-03-13T00:28:31.926Z,100439.53
2023-03-13T00:31:04.729Z,100437.34
2023-03-13T00:33:33.440Z,100432.03
2023-03-13T00:36:01.825Z,100426.38
2023-03-13T00:38:32.030Z,100419.50
2023-03-13T00:41:01.256Z,100415.28
2023-03-13T00:43:29.216Z,100411.03
2023-03-13T00:45:57.250Z,100399.50
2023-03-13T00:48:25.204Z,100397.78
2023-03-13T00:50:53.129Z,100402.69
2023-03-13T00:53:21.347Z,100391.28
2023-03-13T00:55:55.059Z,100388.84
2023-03-13T00:58:23.453Z,100381.63
2023-03-13T01:00:51.527Z,100386.75
2023-03-13T01:03:19.764Z,100372.91
2023-03-13T01:05:56.808Z,100364.63
2023-03-13T01:08:24.755Z,100361.53
2023-03-13T01:10:59.403Z,100360.81
2023-03-13T01:13:27.739Z,100351.75
2023-03-13T01:15:55.779Z,100341.47
2023-03-13T01:18:23.943Z,100335.47
2023-03-13T01:20:51.841Z,100331.06
2023-03-13T01:23:19.879Z,100316.00
2023-03-13T01:25:47.760Z,100312.81
2023-03-13T01:28:17.156Z,100311.25
2023-03-13T01:30:45.058Z,100301.47
2023-03-13T01:33:13.173Z,100293.97
2023-03-13T01:35:41.091Z,100280.78
2023-03-13T01:38:09.114Z,100285.41
2023-03-13T01:40:41.531Z,100258.00
2023-03-13T01:43:27.069Z,100255.94
2023-03-13T01:46:09.767Z,100237.19
2023-03-13T01:48:45.065Z,100230.81
2023-03-13T01:51:15.173Z,100219.94
2023-03-13T01:53:45.748Z,100211.97
2023-03-13T01:56:18.795Z,100212.19
2023-03-13T01:58:49.427Z,100208.13
2023-03-13T02:01:17.947Z,100198.34
2023-03-13T02:03:46.129Z,100190.44
2023-03-13T02:06:14.064Z,100184.22
2023-03-13T02:08:44.507Z,100182.16
2023-03-13T02:11:21.129Z,100177.34
2023-03-13T02:13:51.921Z,100168.75
2023-03-13T02:16:20.508Z,100165.09
2023-03-13T02:18:49.136Z,100158.22
2023-03-13T02:21:24.975Z,100147.69
2023-03-13T02:23:57.896Z,100139.88
2023-03-13T02:26:27.179Z,100138.03
2023-03-13T02:28:55.171Z,100129.38
2023-03-13T02:31:23.241Z,100130.41
2023-03-13T02:33:51.173Z,100119.38
2023-03-13T02:36:19.657Z,100115.13
2023-03-13T02:38:51.268Z,100099.91
2023-03-13T02:41:20.405Z,100103.81
2023-03-13T02:43:49.889Z,100092.84
2023-03-13T02:46:19.800Z,100096.97
2023-03-13T02:48:49.882Z,100086.69
2023-03-13T02:51:21.709Z,100078.06
2023-03-13T02:53:50.844Z,100075.81
2023-03-13T02:56:20.612Z,100085.00
2023-03-13T02:58:50.706Z,100071.13
2023-03-13T03:01:18.831Z,100064.19
2023-03-13T03:03:46.902Z,100061.22
2023-03-13T03:06:14.824Z,100052.28
2023-03-13T03:08:43.963Z,100047.16
2023-03-13T03:11:12.273Z,100045.50
2023-03-13T03:13:40.213Z,100031.06
2023-03-13T03:16:11.136Z,100023.66
2023-03-13T03:18:39.550Z,100016.88
2023-03-13T03:21:08.126Z,100024.16
2023-03-13T03:23:36.203Z,100022.53
2023-03-13T03:26:06.501Z,100010.47
2023-03-13T03:28:34.523Z,100007.47
2023-03-13T03:31:05.537Z,100003.13
2023-03-13T03:33:34.884Z,100008.03
2023-03-13T03:36:03.492Z,100001.81
2023-03-13T03:38:31.592Z,99992.28
2023-03-13T03:40:59.528Z,99994.31
2023-03-13T03:43:27.432Z,99987.50
2023-03-13T03:45:55.496Z,99975.97
2023-03-13T03:48:23.480Z,99963.94
2023-03-13T03:50:52.939Z,99967.78
2023-03-13T03:53:20.890Z,99962.91
2023-03-13T03:55:48.876Z,99963.63
2023-03-13T03:58:16.785Z,99960.22
2023-03-13T04:00:45.279Z,99957.53
2023-03-13T04:03:13.586Z,99958.41
2023-03-13T04:05:42.281Z,99948.03
2023-03-13T04:08:11.997Z,99940.66
2023-03-13T04:10:39.898Z,99929.63
2023-03-13T04:13:07.787Z,99921.09
2023-03-13T04:15:35.775Z,99910.88
2023-03-13T04:18:03.677Z,99912.38
2023-03-13T04:20:31.630Z,99898.16
2023-03-13T04:22:59.555Z,99902.41
2023-03-13T04:25:28.823Z,99892.34
2023-03-13T04:27:56.789Z,99887.94
2023-03-13T04:30:24.803Z,99878.84
2023-03-13T04:32:52.707Z,99878.28
2023-03-13T04:35:20.670Z,99876.88
2023-03-13T04:37:48.819Z,99868.81
2023-03-13T04:40:16.849Z,99861.00
2023-03-13T04:42:46.934Z,99852.78
2023-03-13T04:45:14.914Z,99839.94
2023-03-13T04:47:42.828Z,99844.53
2023-03-13T04:50:11.738Z,99841.41
2023-03-13T04:52:39.811Z,99830.97
2023-03-13T04:55:08.228Z,99822.13
2023-03-13T04:57:36.113Z,99812.81
2023-03-13T05:00:08.097Z,99799.47
2023-03-13T05:02:36.058Z,99807.69
2023-03-13T05:05:04.073Z,99794.94
2023-03-13T05:07:32.045Z,99799.50
2023-03-13T05:09:59.937Z,99794.22
2023-03-13T05:12:27.818Z,99791.84
2023-03-13T05:14:55.752Z,99794.53
2023-03-13T05:17:25.075Z,99792.97
2023-03-13T05:19:52.952Z,99802.63
2023-03-13T05:22:21.005Z,99798.81
2023-03-13T05:24:48.921Z,99786.03
2023-03-13T05:27:16.934Z,99786.47
2023-03-13T05:29:44.809Z,99790.88
2023-03-13T05:32:12.756Z,99790.00
2023-03-13T05:34:42.019Z,99782.50
2023-03-13T05:37:10.011Z,99772.13
2023-03-13T05:39:37.985Z,99765.03
2023-03-13T05:42:05.989Z,99760.91
2023-03-13T05:44:33.902Z,99765.16
2023-03-13T05:47:03.975Z,99761.91
2023-03-13T05:49:32.069Z,99757.38
2023-03-13T05:52:01.354Z,99760.63
2023-03-13T05:54:29.237Z,99757.34
2023-03-13T05:56:57.203Z,99751.28
2023-03-13T05:59:25.184Z,99740.75
2023-03-13T06:01:53.117Z,99747.28
2023-03-13T06:04:21.160Z,99740.78
2023-03-13T06:06:49.184Z,99742.31
2023-03-13T06:09:18.607Z,99766.63
2023-03-13T06:11:46.525Z,99756.97
2023-03-13T06:14:14.472Z,99751.84
2023-03-13T06:16:42.382Z,99758.78
2023-03-13T06:19:10.282Z,99738.19
2023-03-13T06:21:38.225Z,99752.22
2023-03-13T06:24:06.800Z,99748.38
2023-03-13T06:26:36.092Z,99739.03
2023-03-13T06:29:04.013Z,99735.75
2023-03-13T06:31:32.112Z,99733.19
2023-03-13T06:34:00.130Z,99733.13
2023-03-13T06:36:28.090Z,99737.66
2023-03-13T06:38:56.049Z,99726.00
2023-03-13T06:41:24.560Z,99730.66
2023-03-13T06:43:56.964Z,99719.19
2023-03-13T06:46:26.257Z,99720.94
2023-03-13T06:48:54.551Z,99723.88
2023-03-13T06:51:23.808Z,99720.38
2023-03-13T06:53:52.449Z,99725.25
2023-03-13T06:56:21.812Z,99712.72
2023-03-13T06:58:50.389Z,99711.03
2023-03-13T07:01:20.128Z,99715.84
2023-03-13T07:03:48.717Z,99709.16
2023-03-13T07:06:17.240Z,99707.44
2023-03-13T07:08:45.757Z,99714.13
2023-03-13T07:11:15.132Z,99720.69
2023-03-13T07:13:43.341Z,99716.38
2023-03-13T07:16:12.896Z,99710.63
2023-03-13T07:18:44.657Z,99705.03
2023-03-13T07:21:13.280Z,99698.13
2023-03-13T07:23:41.704Z,99713.53
2023-03-13T07:26:12.657Z,99706.72
2023-03-13T07:28:40.750Z,99712.38
2023-03-13T07:31:10.254Z,99705.94
2023-03-13T07:33:38.243Z,99686.88
2023-03-13T07:36:08.675Z,99683.94
2023-03-13T07:38:36.647Z,99708.91
2023-03-13T07:41:04.743Z,99707.53
2023-03-13T07:43:32.651Z,99703.41
2023-03-13T07:46:01.569Z,99707.25
2023-03-13T07:48:31.266Z,99712.41
2023-03-13T07:50:59.350Z,99708.00
2023-03-13T07:53:29.731Z,99713.94
2023-03-13T07:55:59.391Z,99704.84
2023-03-13T07:58:28.811Z,99698.81
2023-03-13T08:00:56.801Z,99717.56
2023-03-13T08:03:25.639Z,99707.94
2023-03-13T08:06:00.780Z,99715.19
2023-03-13T08:08:30.428Z,99716.94
2023-03-13T08:11:02.477Z,99720.31
2023-03-13T08:13:30.469Z,99712.50
2023-03-13T08:16:08.800Z,99712.88
2023-03-13T08:18:37.957Z,99719.34
2023-03-13T08:21:06.783Z,99706.66
2023-03-13T08:23:36.608Z,99723.84
2023-03-13T08:26:06.471Z,99720.81
2023-03-13T08:28:34.431Z,99725.31
2023-03-13T08:31:08.589Z,99729.81
2023-03-13T08:33:36.586Z,99717.19
2023-03-13T08:36:14.833Z,99710.25
2023-03-13T08:38:46.037Z,99725.88
2023-03-13T08:41:15.797Z,99724.47
2023-03-13T08:43:43.836Z,99722.63
2023-03-13T08:46:11.944Z,99722.50
2023-03-13T08:48:39.924Z,99719.56
2023-03-13T08:51:09.269Z,99718.63
2023-03-13T08:53:38.209Z,99725.63
2023-03-13T08:56:09.200Z,99735.88
2023-03-13T08:58:38.356Z,99728.66
2023-03-13T09:01:08.438Z,99727.28
2023-03-13T09:03:38.249Z,99736.91
2023-03-13T09:06:06.786Z,99726.69
2023-03-13T09:08:35.631Z,99735.19
2023-03-13T09:11:05.671Z,99740.75
2023-03-13T09:13:36.379Z,99728.22
2023-03-13T09:16:05.596Z,99737.69
2023-03-13T09:18:34.137Z,99724.94
2023-03-13T09:21:02.482Z,99734.09
2023-03-13T09:23:30.420Z,99737.09
2023-03-13T09:25:58.875Z,99740.25
2023-03-13T09:28:27.605Z,99743.94
2023-03-13T09:30:56.951Z,99738.75
2023-03-13T09:33:25.381Z,99747.41
2023-03-13T09:35:53.384Z,99759.63
2023-03-13T09:38:22.578Z,99740.78
2023-03-13T09:41:05.303Z,99739.09
2023-03-13T09:43:41.985Z,99739.88
2023-03-13T09:46:15.119Z,99743.28
2023-03-13T09:48:45.906Z,99742.63
2023-03-13T09:51:17.589Z,99747.25
2023-03-13T09:53:49.376Z,99747.16
2023-03-13T09:56:18.976Z,99761.84
2023-03-13T09:58:53.370Z,99755.56
2023-03-13T10:01:26.269Z,99750.00
2023-03-13T10:04:02.292Z,99749.97
2023-03-13T10:06:34.723Z,99752.72
2023-03-13T10:09:02.802Z,99760.34
2023-03-13T10:11:35.063Z,99774.44
2023-03-13T10:14:06.491Z,99764.00
2023-03-13T10:16:40.425Z,99782.84
2023-03-13T10:19:13.526Z,99795.91
2023-03-13T10:21:42.385Z,99772.50
2023-03-13T10:24:16.352Z,99766.31
2023-03-13T10:26:44.228Z,99766.88
2023-03-13T10:29:22.040Z,99768.31
2023-03-13T10:31:57.853Z,99741.75
2023-03-13T10:34:26.218Z,99726.97
2023-03-13T10:36:58.389Z,99751.19
2023-03-13T10:39:28.110Z,99736.94
2023-03-13T10:42:01.033Z,99725.91
2023-03-13T10:44:34.370Z,99739.81
2023-03-13T10:47:04.896Z,99724.91
2023-03-13T10:49:33.864Z,99742.19
2023-03-13T10:52:03.960Z,99733.38
2023-03-13T10:54:35.303Z,99726.38
2023-03-13T10:57:15.757Z,99718.28
2023-03-13T10:59:46.121Z,99719.81
2023-03-13T11:02:25.207Z,99708.09
2023-03-13T11:04:54.487Z,99690.75
2023-03-13T11:07:26.937Z,99677.41
2023-03-13T11:10:03.319Z,99671.75
2023-03-13T11:12:35.557Z,99662.22
2023-03-13T11:15:07.901Z,99645.91
2023-03-13T11:17:40.789Z,99623.78
2023-03-13T11:20:15.916Z,99605.28
2023-03-13T11:23:10.640Z,99583.72
2023-03-13T11:25:42.996Z,99573.59
2023-03-13T11:28:25.239Z,99541.69
2023-03-13T11:31:09.001Z,99504.59
2023-03-13T11:33:43.362Z,99491.38
2023-03-13T11:36:17.963Z,99453.69
2023-03-13T11:38:49.503Z,99425.06
2023-03-13T11:41:38.796Z,99410.41
2023-03-13T11:44:18.024Z,99366.16
2023-03-13T11:46:51.498Z,99348.91
2023-03-13T11:49:42.899Z,99339.88
2023-03-13T11:52:18.468Z,99314.75
2023-03-13T11:54:58.471Z,99287.34
2023-03-13T11:57:29.948Z,99260.66
2023-03-13T12:00:17.712Z,99252.63
2023-03-13T12:02:49.847Z,99222.34
2023-03-13T12:05:20.680Z,99187.38
2023-03-13T12:07:54.151Z,99162.19
2023-03-13T12:10:25.119Z,99141.25
2023-03-13T12:12:59.127Z,99138.19
2023-03-13T12:15:29.790Z,99106.94
2023-03-13T12:18:02.368Z,99097.25
2023-03-13T12:20:38.013Z,99089.22
2023-03-13T12:23:17.626Z,99091.59
2023-03-13T12:25:48.606Z,99065.09
2023-03-13T12:28:25.116Z,99065.31
2023-03-13T12:31:00.947Z,99055.44
2023-03-13T12:33:32.601Z,99047.22
2023-03-13T12:36:07.893Z,99033.44
2023-03-13T12:38:39.084Z,99027.38
2023-03-13T12:41:15.585Z,99008.66
2023-03-13T12:43:49.669Z,99002.94
2023-03-13T12:46:36.282Z,98991.91
2023-03-13T12:49:31.001Z,98975.94
2023-03-13T12:52:11.206Z,98957.88
2023-03-13T12:54:53.916Z,98960.84
2023-03-13T12:57:51.792Z,98957.94
2023-03-13T13:00:22.277Z,98955.41
2023-03-13T13:03:03.433Z,98932.59
2023-03-13T13:05:31.363Z,98917.47
2023-03-13T13:08:00.732Z,98920.81
2023-03-13T13:10:29.317Z,98921.88
2023-03-13T13:13:19.986Z,98904.66
2023-03-13T13:15:48.827Z,98909.28
2023-03-13T13:18:25.988Z,98905.66
2023-03-13T13:21:22.003Z,98899.53
2023-03-13T13:23:54.229Z,98890.94
2023-03-13T13:26:49.682Z,98870.44
2023-03-13T13:29:57.102Z,98877.16
2023-03-13T13:32:40.093Z,98870.41
2023-03-13T13:35:33.476Z,98864.09
2023-03-13T13:38:28.428Z,98863.94
2023-03-13T13:41:02.545Z,98858.44
2023-03-13T13:43:32.905Z,98852.50
2023-03-13T13:46:09.144Z,98852.09
2023-03-13T13:48:39.741Z,98841.22
2023-03-13T13:51:25.618Z,98835.13
2023-03-13T13:53:59.796Z,98838.56
2023-03-13T13:56:42.290Z,98842.13
2023-03-13T13:59:33.712Z,98837.34
2023-03-13T14:02:18.600Z,98832.63
2023-03-13T14:04:51.430Z,98834.06
2023-03-13T14:07:21.092Z,98829.88
2023-03-13T14:09:54.647Z,98810.63
2023-03-13T14:12:31.997Z,98812.19
2023-03-13T14:15:20.315Z,98803.31
2023-03-13T14:17:49.828Z,98806.75
2023-03-13T14:20:21.471Z,98799.75
2023-03-13T14:22:50.312Z,98798.63
2023-03-13T14:25:18.454Z,98805.59
2023-03-13T14:27:49.063Z,98794.06
2023-03-13T14:30:18.852Z,98796.50
2023-03-13T14:32:47.123Z,98786.91
2023-03-13T14:35:17.663Z,98775.69
2023-03-13T14:37:46.418Z,98786.84
2023-03-13T14:40:32.290Z,98785.66
2023-03-13T14:43:02.770Z,98793.66
2023-03-13T14:45:31.855Z,98783.59
2023-03-13T14:48:03.555Z,98792.00
2023-03-13T14:50:31.569Z,98780.25
2023-03-13T14:53:04.681Z,98775.03
2023-03-13T14:55:35.100Z,98766.09
2023-03-13T14:58:07.307Z,98766.47
2023-03-13T15:00:38.751Z,98762.66
2023-03-13T15:03:25.600Z,98753.06
2023-03-13T15:06:17.360Z,98755.00
2023-03-13T15:08:46.284Z,98765.06
2023-03-13T15:11:22.856Z,98742.88
2023-03-13T15:13:52.156Z,98750.81
2023-03-13T15:16:21.836Z,98750.47
2023-03-13T15:18:50.915Z,98746.03
2023-03-13T15:21:23.500Z,98747.63
2023-03-13T15:23:53.248Z,98750.53
2023-03-13T15:26:22.372Z,98742.00
2023-03-13T15:28:51.865Z,98740.03
2023-03-13T15:31:21.434Z,98746.75
2023-03-13T15:33:50.157Z,98741.28
2023-03-13T15:36:18.157Z,98749.00
2023-03-13T15:38:46.635Z,98739.75
2023-03-13T15:41:14.537Z,98733.13
2023-03-13T15:43:42.449Z,98723.88
2023-03-13T15:46:14.415Z,98726.81
2023-03-13T15:48:42.612Z,98725.22
2023-03-13T15:51:12.638Z,98727.28
2023-03-13T15:53:40.604Z,98726.38
2023-03-13T15:56:14.826Z,98712.97
2023-03-13T15:58:42.727Z,98708.47
2023-03-13T16:01:13.333Z,98711.41
2023-03-13T16:03:42.024Z,98719.84
2023-03-13T16:06:16.441Z,98698.91
2023-03-13T16:08:44.958Z,98702.91
2023-03-13T16:11:17.523Z,98696.22
2023-03-13T16:13:45.874Z,98703.06
2023-03-13T16:16:21.570Z,98693.41
2023-03-13T16:18:50.378Z,98694.50
2023-03-13T16:21:21.280Z,98687.69
2023-03-13T16:23:49.236Z,98684.50
2023-03-13T16:26:18.785Z,98687.13
2023-03-13T16:28:46.940Z,98686.84
2023-03-13T16:31:20.649Z,98688.41
2023-03-13T16:33:50.612Z,98691.34
2023-03-13T16:36:21.984Z,98670.16
2023-03-13T16:38:50.231Z,98688.84
2023-03-13T16:41:20.188Z,98685.13
2023-03-13T16:43:48.251Z,98683.44
2023-03-13T16:46:19.479Z,98678.66
2023-03-13T16:48:48.115Z,98681.63
2023-03-13T16:51:18.590Z,98672.41
2023-03-13T16:53:47.470Z,98673.22
2023-03-13T16:56:23.587Z,98679.31
2023-03-13T16:58:51.770Z,98681.47
2023-03-13T17:01:21.304Z,98676.91
2023-03-13T17:03:49.314Z,98679.78
2023-03-13T17:06:18.837Z,98672.72
2023-03-13T17:08:46.849Z,98677.78
2023-03-13T17:11:17.952Z,98679.44
2023-03-13T17:13:47.140Z,98678.84
2023-03-13T17:16:17.352Z,98672.34
2023-03-13T17:18:48.348Z,98685.13
2023-03-13T17:21:18.434Z,98681.78
2023-03-13T17:23:46.626Z,98680.72
2023-03-13T17:26:17.018Z,98683.88
2023-03-13T17:28:45.365Z,98682.81
2023-03-13T17:31:13.581Z,98691.63
2023-03-13T17:33:41.742Z,98689.75
2023-03-13T17:36:20.180Z,98689.97
2023-03-13T17:38:49.172Z,98690.56
2023-03-13T17:41:19.368Z,98705.22
2023-03-13T17:43:47.540Z,98718.25
2023-03-13T17:46:18.307Z,98717.59
2023-03-13T17:48:47.209Z,98716.13
2023-03-13T17:51:19.166Z,98725.75
2023-03-13T17:53:47.083Z,98715.44
2023-03-13T17:56:17.234Z,98706.47
2023-03-13T17:58:45.600Z,98712.56
2023-03-13T18:01:15.279Z,98708.19
2023-03-13T18:03:43.656Z,98703.91
2023-03-13T18:06:22.799Z,98705.19
2023-03-13T18:08:51.739Z,98710.06
2023-03-13T18:11:20.192Z,98726.13
2023-03-13T18:13:48.515Z,98704.78
2023-03-13T18:16:18.893Z,98704.78
2023-03-13T18:18:47.036Z,98706.81
2023-03-13T18:21:14.966Z,98704.31
2023-03-13T18:23:44.271Z,98713.31
2023-03-13T18:26:23.025Z,98709.94
2023-03-13T18:28:51.412Z,98707.00
2023-03-13T18:31:19.565Z,98716.59
2023-03-13T18:33:48.027Z,98721.16
2023-03-13T18:36:18.224Z,98726.91
2023-03-13T18:38:48.868Z,98722.78
2023-03-13T18:41:17.419Z,98731.38
2023-03-13T18:43:46.027Z,98734.03
2023-03-13T18:46:17.001Z,98726.44
2023-03-13T18:48:44.969Z,98727.22
2023-03-13T18:51:15.174Z,98724.16
2023-03-13T18:53:43.303Z,98730.09
2023-03-13T18:56:18.514Z,98740.16
2023-03-13T18:58:49.783Z,98748.63
2023-03-13T19:01:20.161Z,98754.03
2023-03-13T19:03:48.447Z,98750.38
2023-03-13T19:06:22.384Z,98760.44
2023-03-13T19:08:51.766Z,98761.34
2023-03-13T19:11:23.370Z,98769.81
2023-03-13T19:13:51.357Z,98773.91
2023-03-13T19:16:20.427Z,98770.38
2023-03-13T19:18:49.224Z,98768.31
2023-03-13T19:21:19.469Z,98764.72
2023-03-13T19:23:47.927Z,98766.50
2023-03-13T19:26:26.824Z,98753.28
2023-03-13T19:28:55.174Z,98753.44
2023-03-13T19:31:24.029Z,98758.97
2023-03-13T19:33:53.521Z,98757.22
2023-03-13T19:36:23.141Z,98764.91
2023-03-13T19:38:51.484Z,98751.47
2023-03-13T19:41:20.849Z,98760.16
2023-03-13T19:43:48.935Z,98756.50
2023-03-13T19:46:25.962Z,98747.53
2023-03-13T19:48:54.897Z,98738.50
2023-03-13T19:51:23.426Z,98728.88
2023-03-13T19:53:52.936Z,98730.59
2023-03-13T19:56:23.606Z,98724.16
2023-03-13T19:58:52.775Z,98724.38
2023-03-13T20:01:20.893Z,98723.16
2023-03-13T20:03:48.952Z,98708.22
2023-03-13T20:06:18.953Z,98705.25
2023-03-13T20:08:47.789Z,98701.97
2023-03-13T20:11:16.455Z,98693.13
2023-03-13T20:13:45.816Z,98698.88
2023-03-13T20:16:14.121Z,98694.66
2023-03-13T20:18:43.389Z,98702.63
2023-03-13T20:21:11.922Z,98711.22
2023-03-13T20:23:39.868Z,98722.53
2023-03-13T20:26:09.804Z,98725.34
2023-03-13T20:28:38.091Z,98724.03
2023-03-13T20:31:08.325Z,98706.47
2023-03-13T20:33:36.634Z,98706.47
2023-03-13T20:36:06.795Z,98717.78
2023-03-13T20:38:34.940Z,98712.44
2023-03-13T20:41:03.297Z,98723.03
2023-03-13T20:43:31.858Z,98719.00
2023-03-13T20:46:00.487Z,98725.81
2023-03-13T20:48:30.128Z,98713.84
2023-03-13T20:51:00.889Z,98717.50
2023-03-13T20:53:29.909Z,98712.31
2023-03-13T20:55:57.851Z,98711.56
2023-03-13T20:58:25.806Z,98708.75
2023-03-13T21:00:53.710Z,98714.47
2023-03-13T21:03:22.846Z,98692.06
2023-03-13T21:05:52.199Z,98699.09
2023-03-13T21:08:20.626Z,98698.41
2023-03-13T21:10:48.533Z,98682.34
2023-03-13T21:13:16.499Z,98676.75
2023-03-13T21:15:44.398Z,98680.28
2023-03-13T21:18:12.317Z,98673.19
2023-03-13T21:20:40.301Z,98674.22
2023-03-13T21:23:09.586Z,98681.31
2023-03-13T21:25:37.462Z,98691.81
2023-03-13T21:28:05.793Z,98703.56
2023-03-13T21:30:33.695Z,98710.47
2023-03-13T21:33:01.629Z,98715.41
2023-03-13T21:35:29.681Z,98725.25
2023-03-13T21:37:57.604Z,98721.59
2023-03-13T21:40:28.681Z,98724.47
2023-03-13T21:42:56.573Z,98727.09
2023-03-13T21:45:24.469Z,98734.50
2023-03-13T21:47:52.503Z,98727.94
2023-03-13T21:52:53.668Z,98737.47
2023-03-13T21:55:21.598Z,98733.91
2023-03-13T21:57:50.954Z,98722.06
2023-03-13T22:00:19.342Z,98725.31
2023-03-13T22:02:47.269Z,98729.50
2023-03-13T22:05:15.178Z,98727.28
2023-03-13T22:07:43.104Z,98730.38
2023-03-13T22:10:12.180Z,98735.41
2023-03-13T22:12:40.203Z,98720.84
2023-03-13T22:15:11.233Z,98722.16
2023-03-13T22:17:39.191Z,98714.78
2023-03-13T22:20:10.196Z,98708.31
2023-03-13T22:22:38.103Z,98711.88
2023-03-13T22:25:06.842Z,98714.47
2023-03-13T22:27:35.050Z,98716.88
2023-03-13T22:30:02.998Z,98705.59
2023-03-13T22:32:32.332Z,98706.25
2023-03-13T22:35:00.284Z,98700.66
2023-03-13T22:37:28.220Z,98699.22
2023-03-13T22:39:56.262Z,98697.84
2023-03-13T22:42:24.838Z,98690.47
2023-03-13T22:44:55.168Z,98687.66
2023-03-13T22:47:23.565Z,98694.59
2023-03-13T22:49:53.634Z,98703.38
2023-03-13T22:52:22.206Z,98698.41
2023-03-13T22:54:50.127Z,98703.81
2023-03-13T22:57:18.003Z,98710.00
2023-03-13T22:59:46.012Z,98699.63
2023-03-13T23:02:13.945Z,98688.63
2023-03-13T23:04:41.873Z,98681.88
2023-03-13T23:07:11.196Z,98673.75
2023-03-13T23:09:39.087Z,98674.13
2023-03-13T23:12:07.469Z,98671.16
2023-03-13T23:14:35.487Z,98668.16
2023-03-13T23:17:03.542Z,98661.34
2023-03-13T23:19:34.846Z,98674.63
2023-03-13T23:22:05.326Z,98671.63
2023-03-13T23:24:34.614Z,98677.69
2023-03-13T23:27:02.525Z,98667.25
2023-03-13T23:29:30.429Z,98674.25
2023-03-13T23:31:58.384Z,98670.59
2023-03-13T23:34:26.275Z,98673.03
2023-03-13T23:36:54.473Z,98673.84
2023-03-13T23:39:22.405Z,98672.00
2023-03-13T23:41:51.692Z,98662.75
2023-03-13T23:44:19.621Z,98655.91
2023-03-13T23:46:47.594Z,98666.75
2023-03-13T23:49:16.347Z,98655.19
2023-03-13T23:51:44.248Z,98653.69
2023-03-13T23:54:12.185Z,98657.31
2023-03-13T23:56:40.158Z,98653.84
2023-03-13T23:59:09.440Z,98665.13
